Latest Weather Observations for Yarrawonga

IDN60801

Issued at 10:05 pm EST Thursday 2 October 2014 (issued every 30 minutes, with the page automatically refreshed every 10 minutes)

About weather observations | Map of weather stations | Latest weather observations for NSW | Other Formats
Station Details ID: 081124 Name: YARRAWONGA Lat: -36.03 Lon: 146.03 Height: 128.9 m
Data from the previous 72 hours. | See also: Recent months at Yarrawonga
Date/Time
EST
Temp
°C
App
Temp
°C
Dew
Point
Rel
Hum
%
Delta-T
°C
Wind Press
QNH
hPa
Press
MSL
hPa
Rain
since 9 am
mm
Dir
 
Spd
km/h
Gust
km/h
Spd
kts
Gust
kts
02/10:00pm 9.4 5.9 7.0 85 1.1 SW 15 19 8 10 1022.5 1022.5 0.0
02/09:30pm 8.7 5.1 6.8 88 0.9 SW 15 17 8 9 1022.7 1022.7 0.0
02/09:00pm 8.9 5.7 7.0 88 0.9 SW 13 13 7 7 1022.8 1022.8 0.0
02/08:30pm 10.1 6.7 7.7 85 1.2 SSW 15 17 8 9 1022.8 1022.8 0.0
02/08:00pm 9.3 7.1 7.7 90 0.8 SW 9 9 5 5 1022.8 1022.8 0.0
02/07:30pm 9.8 7.5 7.6 86 1.1 SW 9 9 5 5 1022.7 1022.7 0.0
02/07:00pm 11.6 9.8 7.9 78 1.8 SSW 7 9 4 5 1022.4 1022.4 0.0
02/06:30pm 12.0 9.9 8.1 77 1.9 SSW 9 13 5 7 1022.3 1022.3 0.0
02/06:00pm 14.5 12.8 8.5 67 3.0 SW 7 9 4 5 1022.0 1022.0 0.0
02/05:30pm 16.2 13.3 8.2 59 4.1 SSW 13 17 7 9 1021.9 1021.9 0.0
02/05:00pm 16.5 13.1 7.7 56 4.4 WSW 15 20 8 11 1021.9 1021.9 0.0
02/04:30pm 16.2 12.4 7.4 56 4.4 WSW 17 28 9 15 1021.9 1021.9 0.0
02/04:00pm 17.2 12.8 7.5 53 4.9 SW 20 28 11 15 1021.9 1021.9 0.0
02/03:30pm 17.7 13.3 7.4 51 5.2 SW 20 30 11 16 1021.9 1021.9 0.0
02/03:00pm 17.0 12.6 7.4 53 4.8 SW 20 30 11 16 1022.1 1022.1 0.0
02/02:30pm 17.3 12.6 7.6 53 4.9 WSW 22 32 12 17 1022.3 1022.3 0.0
02/02:00pm 17.0 12.8 7.4 53 4.8 WSW 19 22 10 12 1022.7 1022.7 0.0
02/01:30pm 16.6 12.2 7.3 54 4.7 SSW 20 32 11 17 1023.1 1023.0 0.0
02/01:00pm 16.5 11.3 7.2 54 4.6 SW 24 35 13 19 1023.5 1023.4 0.0
02/12:30pm 16.4 11.4 8.1 58 4.2 SW 24 32 13 17 1023.6 1023.5 0.0
02/12:00pm 16.4 12.2 8.4 59 4.1 SW 20 28 11 15 1023.9 1023.8 0.0
02/11:00am 15.5 11.2 7.8 60 3.9 SW 20 33 11 18 1024.2 1024.1 0.0
02/10:30am 14.8 9.9 6.9 59 3.9 SSW 22 33 12 18 1024.3 1024.2 0.0
02/10:00am 14.0 9.5 6.8 62 3.5 SSW 20 30 11 16 1024.5 1024.4 0.0
02/09:30am 12.8 7.9 7.0 68 2.8 SW 22 30 12 16 1024.8 1024.7 0.0
02/09:00am 12.8 8.3 6.8 67 2.9 SW 20 26 11 14 1024.8 1024.7 0.0
02/08:30am 11.5 6.6 6.8 73 2.2 SW 22 28 12 15 1025.0 1024.9 0.0
02/08:00am 10.2 6.9 8.1 87 1.0 SW 15 24 8 13 1024.8 1024.7 0.0
02/07:30am 7.7 4.9 6.8 94 0.4 SW 11 15 6 8 1024.7 1024.6 0.0
02/07:00am 5.7 3.3 5.4 98 0.1 WSW 7 9 4 5 1024.6 1024.5 0.0
02/06:30am 4.3 1.7 4.0 98 0.1 W 7 9 4 5 1024.3 1024.2 0.0
02/06:00am 2.8 0.1 2.5 98 0.1 WSW 6 6 3 3 1024.1 1024.0 0.0
02/05:30am 2.6 -0.2 2.3 98 0.1 SW 6 7 3 4 1023.8 1023.7 0.0
02/05:00am 3.0 0.1 2.7 98 0.1 WSW 7 9 4 5 1023.8 1023.7 0.0
02/04:30am 3.1 0.2 2.8 98 0.1 WSW 7 7 4 4 1023.8 1023.7 0.0
02/04:00am 3.5 0.7 3.2 98 0.1 WSW 7 9 4 5 1023.7 1023.6 0.0
02/03:30am 3.7 0.2 3.4 98 0.1 WSW 11 13 6 7 1023.6 1023.5 0.0
02/03:00am 3.8 0.7 3.5 98 0.1 WSW 9 9 5 5 1023.7 1023.6 0.0
02/02:30am 4.6 0.9 4.2 97 0.2 WSW 13 15 7 8 1023.9 1023.8 0.0
02/02:00am 4.3 1.6 3.9 97 0.2 WSW 7 9 4 5 1024.2 1024.1 0.0
02/01:30am 4.3 1.6 3.6 95 0.3 W 7 9 4 5 1024.4 1024.3 0.0
02/01:00am 4.9 2.2 3.6 91 0.5 SW 7 9 4 5 1024.6 1024.5 0.0
02/12:30am 7.3 6.1 4.8 84 1.1 CALM 0 0 0 0 1024.7 1024.6 0.0
02/12:00am 5.9 3.9 4.4 90 0.6 ESE 4 9 2 5 1024.9 1024.8 0.0
 
Date/Time
EST
Temp
°C
App
Temp
°C
Dew
Point
Rel
Hum
%
Delta-T
°C
Wind Press
QNH
hPa
Press
MSL
hPa
Rain
since 9 am
mm
Dir
 
Spd
km/h
Gust
km/h
Spd
kts
Gust
kts
01/11:30pm 6.1 3.5 4.3 88 0.8 SSW 7 9 4 5 1024.8 1024.7 0.0
01/11:00pm 6.4 2.7 4.6 88 0.8 SW 13 15 7 8 1024.8 1024.7 0.0
01/10:30pm 7.1 4.2 4.9 86 1.0 SSW 9 11 5 6 1024.9 1024.8 0.0
01/10:00pm 7.9 5.6 5.9 87 0.9 SSW 7 9 4 5 1025.0 1024.9 0.0
01/09:30pm 8.7 6.6 6.0 83 1.2 WSW 6 7 3 4 1024.9 1024.8 0.0
01/09:00pm 7.8 6.1 5.8 87 0.9 WSW 4 6 2 3 1024.8 1024.7 0.0
01/08:30pm 7.2 4.7 4.5 83 1.2 SW 7 7 4 4 1024.5 1024.4 0.0
01/08:00pm 8.5 6.9 4.7 77 1.7 SW 2 6 1 3 1024.1 1024.0 0.0
01/07:30pm 8.8 6.8 4.6 75 1.9 W 4 6 2 3 1023.8 1023.7 0.0
01/07:00pm 9.7 7.2 4.9 72 2.2 WSW 7 7 4 4 1023.7 1023.6 0.0
01/06:30pm 9.8 7.4 5.4 74 2.0 WSW 7 9 4 5 1023.6 1023.5 0.0
01/06:00pm 12.1 9.2 4.8 61 3.3 SW 9 11 5 6 1023.3 1023.2 0.0
01/05:30pm 14.2 9.9 3.4 48 4.9 SW 15 19 8 10 1023.2 1023.1 0.0
01/05:00pm 14.4 9.6 2.6 45 5.3 SW 17 22 9 12 1023.1 1023.0 0.0
01/04:30pm 15.7 9.9 2.5 41 6.0 SW 22 30 12 16 1022.7 1022.7 0.0
01/04:00pm 15.8 9.7 2.6 41 5.9 SW 24 28 13 15 1022.4 1022.4 0.0
01/03:30pm 16.0 10.2 2.1 39 6.2 SW 22 32 12 17 1022.3 1022.3 0.0
01/03:00pm 15.4 9.3 2.6 42 5.7 SW 24 32 13 17 1022.9 1022.9 0.0
01/02:30pm 16.1 10.8 2.9 41 6.0 SSW 20 32 11 17 1022.9 1022.9 0.0
01/02:00pm 15.8 10.8 4.5 47 5.3 SW 20 30 11 16 1022.8 1022.8 0.0
01/01:30pm 16.4 10.6 4.4 45 5.7 WSW 24 33 13 18 1023.1 1023.0 0.0
01/01:00pm 14.9 9.0 3.7 47 5.1 WSW 24 30 13 16 1023.4 1023.3 0.0
01/12:30pm 15.7 10.5 5.3 50 5.0 SW 22 30 12 16 1023.9 1023.8 0.0
01/12:00pm 15.2 10.3 4.9 50 4.8 SSW 20 33 11 18 1024.1 1024.0 0.0
01/11:30am 13.8 9.0 5.4 57 4.0 SW 20 28 11 15 1024.0 1023.9 0.0
01/11:00am 12.9 9.6 4.6 57 3.8 SSW 11 17 6 9 1024.2 1024.1 0.0
01/10:30am 12.0 6.9 4.2 59 3.5 SW 20 28 11 15 1024.3 1024.2 0.0
01/10:00am 11.5 6.5 4.5 62 3.2 SW 20 30 11 16 1024.1 1024.0 0.0
01/09:30am 11.7 7.0 5.1 64 3.0 SW 19 24 10 13 1024.0 1024.0 0.0
01/09:00am 10.4 6.4 4.8 68 2.5 SW 15 24 8 13 1023.7 1023.7 0.0
01/08:30am 9.7 5.1 5.5 75 1.9 W 19 24 10 13 1023.3 1023.3 0.0
01/08:00am 8.0 3.5 4.4 78 1.6 W 17 22 9 12 1022.8 1022.9 0.0
01/07:30am 6.6 2.1 4.1 84 1.1 W 17 22 9 12 1022.3 1022.4 0.0
01/07:00am 5.3 1.0 3.5 88 0.8 W 15 19 8 10 1021.9 1022.0 0.0
01/06:30am 4.2 0.2 2.9 91 0.5 W 13 15 7 8 1021.4 1021.5 0.0
01/06:00am 3.6 -0.5 2.4 92 0.5 W 13 15 7 8 1021.0 1021.1 0.0
01/05:30am 3.8 -0.3 2.3 90 0.6 W 13 17 7 9 1020.4 1020.5 0.0
01/05:00am 4.0 -0.1 2.4 89 0.6 W 13 17 7 9 1019.9 1020.0 0.0
01/04:30am 4.1 -0.3 2.6 90 0.6 W 15 19 8 10 1019.5 1019.6 0.0
01/04:00am 4.4 0.4 2.6 88 0.7 W 13 19 7 10 1019.0 1019.1 0.0
01/03:30am 4.6 0.6 2.6 87 0.8 WSW 13 17 7 9 1018.5 1018.6 0.0
01/03:00am 5.4 1.1 3.4 87 0.8 W 15 19 8 10 1018.2 1018.3 0.0
01/02:30am 4.6 1.1 3.7 94 0.4 WSW 11 15 6 8 1017.9 1017.9 0.0
01/02:00am 4.9 1.5 4.0 94 0.4 WSW 11 13 6 7 1017.5 1017.5 0.0
01/01:30am 5.5 2.2 4.3 92 0.5 WSW 11 15 6 8 1017.4 1017.4 0.0
01/01:00am 6.8 3.2 5.1 89 0.8 WSW 13 17 7 9 1017.0 1017.0 0.0
01/12:30am 7.4 4.4 6.0 91 0.6 W 11 15 6 8 1016.7 1016.7 0.0
01/12:00am 7.6 4.6 6.1 90 0.7 W 11 13 6 7 1016.4 1016.4 0.0
 
Date/Time
EST
Temp
°C
App
Temp
°C
Dew
Point
Rel
Hum
%
Delta-T
°C
Wind Press
QNH
hPa
Press
MSL
hPa
Rain
since 9 am
mm
Dir
 
Spd
km/h
Gust
km/h
Spd
kts
Gust
kts
30/11:30pm 8.0 5.3 5.8 86 1.0 W 9 13 5 7 1016.0 1016.0 0.0
30/11:00pm 8.0 4.9 5.6 85 1.1 WSW 11 13 6 7 1015.7 1015.7 0.0
30/10:30pm 8.6 5.1 5.5 81 1.4 WSW 13 15 7 8 1015.3 1015.3 0.0
30/10:00pm 10.3 6.4 5.5 72 2.2 WSW 15 19 8 10 1015.2 1015.2 0.0
30/09:30pm 10.9 6.3 5.7 70 2.4 SW 19 26 10 14 1014.3 1014.4 0.0
30/09:00pm 11.1 5.8 6.6 74 2.1 SW 24 35 13 19 1013.4 1013.5 0.0
30/08:30pm 11.7 7.1 6.6 71 2.4 SW 20 30 11 16 1013.3 1013.4 0.0
30/08:00pm 12.4 6.2 7.7 73 2.3 SW 30 41 16 22 1013.1 1013.2 0.0
30/07:46pm 12.8 6.3 8.1 73 2.3 SW 32 50 17 27 1012.8 1012.9 0.0
30/07:30pm 14.2 7.3 7.3 63 3.4 WSW 33 48 18 26 1012.0 1012.1 0.0
30/07:00pm 15.3 8.0 8.8 65 3.3 WSW 37 52 20 28 1011.0 1011.0 0.0
30/06:30pm 16.8 7.8 8.8 59 4.1 WSW 46 67 25 36 1009.9 1009.9 0.0
30/06:04pm 18.7 9.7 8.7 52 5.2 WSW 46 65 25 35 1008.6 1008.6 0.0
30/06:00pm 19.1 9.2 8.4 50 5.6 WSW 50 65 27 35 1008.5 1008.5 0.0
30/05:48pm 22.4 15.7 5.8 34 8.4 W 30 52 16 28 1007.6 1007.6 0.0
30/05:30pm 22.7 18.2 6.9 36 8.2 WNW 20 35 11 19 1007.2 1007.2 0.0
30/05:00pm 23.2 17.4 6.1 33 8.8 WNW 26 41 14 22 1007.0 1007.0 0.0
30/04:30pm 23.8 16.7 5.7 31 9.2 WNW 32 50 17 27 1007.2 1007.2 0.0
30/04:00pm 24.2 17.3 6.5 32 9.2 NW 32 52 17 28 1007.3 1007.3 0.0
30/03:35pm 24.2 18.2 6.9 33 9.0 WNW 28 46 15 25 1007.4 1007.4 0.0
30/03:30pm 24.5 18.2 7.2 33 9.1 WNW 30 46 16 25 1007.4 1007.4 0.0
30/03:27pm 24.3 18.2 6.6 32 9.2 WNW 28 46 15 25 1007.4 1007.4 0.0
30/03:00pm 24.8 17.9 6.5 31 9.6 NW 32 46 17 25 1007.8 1007.8 0.0
30/02:30pm 24.4 18.8 7.1 33 9.1 NW 26 39 14 21 1008.3 1008.3 0.0
30/02:19pm 23.5 17.4 6.7 34 8.7 NW 28 48 15 26 1008.5 1008.5 0.0
30/02:00pm 23.4 17.5 7.5 36 8.4 NW 28 43 15 23 1008.9 1008.9 0.0
30/01:30pm 23.3 17.5 7.8 37 8.2 NNW 28 48 15 26 1009.4 1009.4 0.0
30/01:28pm 23.5 17.7 8.0 37 8.2 NNW 28 48 15 26 1009.4 1009.4 0.0
30/01:00pm 22.9 17.4 9.0 41 7.5 NNW 28 41 15 22 1010.0 1010.0 0.0
30/12:30pm 22.6 18.0 9.7 44 7.0 NNW 24 35 13 19 1010.2 1010.2 0.0
30/12:00pm 22.0 18.4 9.9 46 6.6 NNW 19 26 10 14 1010.9 1010.9 0.0
30/11:30am 21.3 17.9 9.2 46 6.5 NNW 17 28 9 15 1011.6 1011.7 0.0
30/11:00am 20.5 19.2 11.2 55 5.1 NW 9 15 5 8 1012.2 1012.3 0.0
30/10:30am 19.0 18.0 11.1 60 4.3 W 7 13 4 7 1012.5 1012.6 0.0
30/10:00am 18.1 16.7 11.0 63 3.9 W 9 17 5 9 1013.2 1013.3 0.0
30/09:30am 16.6 14.8 10.9 69 3.1 W 11 15 6 8 1013.4 1013.5 0.0
30/09:00am 15.3 12.6 11.7 79 2.0 WSW 17 20 9 11 1013.8 1013.9 0.0
30/08:30am 14.6 13.7 11.4 81 1.7 W 7 11 4 6 1013.4 1013.5 0.0
30/08:00am 13.7 12.7 10.9 83 1.5 NW 7 13 4 7 1013.4 1013.5 0.0
30/07:30am 12.7 12.3 11.1 90 0.8 NNE 4 7 2 4 1013.0 1013.1 0.0
30/07:00am 11.4 10.6 11.1 98 0.2 NE 6 9 3 5 1012.8 1012.9 0.0
30/06:30am 9.2 8.6 8.9 98 0.1 NE 2 7 1 4 1012.8 1012.9 0.0
30/06:00am 9.4 7.9 9.1 98 0.1 NNE 7 9 4 5 1012.5 1012.6 0.0
30/05:30am 8.7 7.2 8.4 98 0.1 NE 6 7 3 4 1012.2 1012.3 0.0
30/05:00am 8.1 6.5 7.8 98 0.1 ENE 6 7 3 4 1012.1 1012.2 0.0
30/04:30am 8.2 6.4 7.9 98 0.1 E 7 11 4 6 1012.0 1012.1 0.0
30/04:00am 8.1 5.9 7.8 98 0.1 ENE 9 9 5 5 1012.1 1012.2 0.0
30/03:30am 8.3 7.8 8.0 98 0.1 CALM 0 0 0 0 1012.3 1012.4 0.0
30/03:00am 8.3 7.5 8.0 98 0.1 E 2 4 1 2 1012.4 1012.5 0.0
30/02:30am 7.9 6.6 7.6 98 0.1 E 4 6 2 3 1012.6 1012.7 0.0
30/02:00am 8.5 6.9 8.2 98 0.1 E 6 7 3 4 1012.7 1012.8 0.0
30/01:30am 8.6 7.1 8.3 98 0.1 E 6 7 3 4 1013.0 1013.1 0.0
30/01:00am 8.1 6.5 7.8 98 0.1 ESE 6 11 3 6 1013.2 1013.3 0.0
30/12:30am 8.5 6.8 8.2 98 0.1 E 7 9 4 5 1013.4 1013.5 0.0
30/12:00am 7.7 6.3 7.4 98 0.1 ESE 4 6 2 3 1013.7 1013.8 0.0
 
Date/Time
EST
Temp
°C
App
Temp
°C
Dew
Point
Rel
Hum
%
Delta-T
°C
Wind Press
QNH
hPa
Press
MSL
hPa
Rain
since 9 am
mm
Dir
 
Spd
km/h
Gust
km/h
Spd
kts
Gust
kts
29/11:30pm 8.5 6.9 8.2 98 0.1 ESE 6 7 3 4 1013.8 1013.9 0.0
29/11:00pm 8.7 7.6 8.4 98 0.1 SE 4 6 2 3 1014.2 1014.3 0.0
29/10:30pm 8.5 7.3 8.2 98 0.1 SE 4 6 2 3 1014.3 1014.4 0.0

Other Formats:

Comma delimited format used in spreadsheet applications
http://www.bom.gov.au/fwo/IDN60801/IDN60801.94862.axf

JavaScript Object Notation format (JSON) in row-major order
http://www.bom.gov.au/fwo/IDN60801/IDN60801.94862.json